Time;durP1;ratioP1;P1;durP2;ratioP2;P2;SDS_P1;SDS_P2;PMS_P1;PMS_P2;Temp;Humidity;BMP_temperature;BMP_pressure;BME280_temperature;BME280_humidity;BME280_pressure;Samples;Min_cycle;Max_cycle;Signal;HPM_P1;HPM_P2
2023/10/07 00:00:47;;;;;;;17.30;6.60;;;16.70;99.90;;;;;;5126843;27;20046;-79
2023/10/07 00:03:05;;;;;;;23.15;6.85;;;16.80;99.90;;;;;;5125549;27;20053;-79
2023/10/07 00:05:35;;;;;;;18.42;6.25;;;16.80;99.90;;;;;;5111769;27;20187;-80
2023/10/07 00:08:07;;;;;;;20.20;6.43;;;16.80;99.90;;;;;;5124794;27;20043;-80
2023/10/07 00:10:37;;;;;;;19.02;6.03;;;16.70;99.90;;;;;;5115792;27;20047;-80
2023/10/07 00:13:09;;;;;;;16.90;6.35;;;16.80;99.90;;;;;;5125765;27;20049;-79
2023/10/07 00:15:36;;;;;;;20.25;6.15;;;16.80;99.90;;;;;;5112161;27;20821;-80
2023/10/07 00:18:13;;;;;;;17.70;5.57;;;16.80;99.90;;;;;;5114187;27;20054;-80
2023/10/07 00:20:56;;;;;;;18.30;5.93;;;16.70;99.90;;;;;;5133103;27;20489;-79
2023/10/07 00:23:26;;;;;;;19.75;6.50;;;16.80;99.90;;;;;;5120195;27;20137;-80
2023/10/07 00:25:55;;;;;;;;;;;16.80;99.90;;;;;;5113482;27;20043;-80
2023/10/07 00:31:01;;;;;;;18.17;6.15;;;16.80;99.90;;;;;;5127884;27;20055;-80
2023/10/07 00:33:28;;;;;;;16.50;6.10;;;16.80;99.90;;;;;;5106768;27;20622;-79
2023/10/07 00:35:54;;;;;;;17.65;5.65;;;16.80;99.90;;;;;;5127551;27;20042;-79
2023/10/07 00:38:23;;;;;;;20.52;5.90;;;16.80;99.90;;;;;;5111626;27;20146;-80
2023/10/07 00:40:54;;;;;;;18.70;6.15;;;16.80;99.90;;;;;;5109407;27;20467;-79
2023/10/07 00:43:30;;;;;;;17.42;5.88;;;16.80;99.90;;;;;;5111825;27;20078;-80
2023/10/07 00:46:10;;;;;;;19.90;6.03;;;16.90;99.90;;;;;;5128842;27;20140;-80
2023/10/07 00:48:47;;;;;;;19.27;6.00;;;16.80;99.90;;;;;;5112129;27;20034;-76
2023/10/07 00:51:22;;;;;;;20.30;6.25;;;16.90;99.90;;;;;;5111908;27;20473;-76
2023/10/07 00:54:00;;;;;;;15.90;5.95;;;16.90;99.90;;;;;;5118317;27;20084;-75
2023/10/07 00:56:33;;;;;;;17.55;7.00;;;16.90;99.90;;;;;;5114579;27;20050;-75
2023/10/07 00:59:07;;;;;;;18.38;5.72;;;16.90;99.90;;;;;;5127872;27;20051;-75
2023/10/07 01:01:36;;;;;;;17.75;5.72;;;16.90;99.90;;;;;;5127425;27;20399;-76
2023/10/07 01:04:06;;;;;;;21.17;7.25;;;16.90;99.90;;;;;;5106949;27;20061;-80
2023/10/07 01:06:32;;;;;;;15.65;6.45;;;16.90;99.90;;;;;;5127218;27;20513;-80
2023/10/07 01:09:10;;;;;;;18.25;5.90;;;16.80;99.90;;;;;;5128142;27;20364;-79
2023/10/07 01:11:40;;;;;;;19.27;6.03;;;16.90;99.90;;;;;;5109246;27;20039;-80
2023/10/07 01:14:11;;;;;;;22.55;7.10;;;16.90;99.90;;;;;;5127772;27;20448;-80
2023/10/07 01:16:41;;;;;;;17.88;6.10;;;16.90;99.90;;;;;;5111681;27;20075;-81
2023/10/07 01:22:09;;;;;;;19.08;7.10;;;16.80;99.90;;;;;;5126838;27;20043;-81
2023/10/07 01:27:07;;;;;;;22.90;7.57;;;16.80;99.90;;;;;;5126455;27;20880;-79
2023/10/07 01:29:34;;;;;;;18.92;7.03;;;16.80;99.90;;;;;;5117535;27;20042;-76
2023/10/07 01:32:03;;;;;;;19.85;7.38;;;16.80;99.90;;;;;;5126453;27;20046;-75
2023/10/07 01:34:30;;;;;;;16.17;6.68;;;16.80;99.90;;;;;;5107096;27;20107;-76
2023/10/07 01:37:01;;;;;;;23.80;8.48;;;16.90;99.90;;;;;;5121799;27;20556;-76
2023/10/07 01:39:40;;;;;;;20.10;7.75;;;16.80;99.90;;;;;;5124263;27;20439;-76
2023/10/07 01:42:07;;;;;;;21.63;7.72;;;16.90;99.90;;;;;;5109824;27;20590;-76
2023/10/07 01:44:38;;;;;;;23.15;7.38;;;16.90;99.90;;;;;;5125208;27;20519;-76
2023/10/07 01:47:16;;;;;;;16.48;6.88;;;16.80;99.90;;;;;;5108728;27;20047;-76
2023/10/07 01:49:43;;;;;;;18.58;7.28;;;16.90;99.90;;;;;;5109535;27;20104;-76
2023/10/07 01:52:09;;;;;;;18.63;6.65;;;16.80;99.90;;;;;;5109842;27;20058;-76
2023/10/07 01:54:35;;;;;;;20.80;6.78;;;16.90;99.90;;;;;;5124526;27;20046;-76
2023/10/07 01:57:05;;;;;;;17.85;7.57;;;16.80;99.90;;;;;;5123684;27;20070;-75
2023/10/07 01:59:31;;;;;;;18.23;6.93;;;16.80;99.90;;;;;;5107225;27;20047;-76
2023/10/07 02:02:06;;;;;;;19.40;7.47;;;16.80;99.90;;;;;;5124645;27;20077;-76
2023/10/07 02:04:32;;;;;;;19.20;7.28;;;16.90;99.90;;;;;;5123270;27;20133;-76
2023/10/07 02:06:59;;;;;;;17.98;7.18;;;16.90;99.90;;;;;;5125467;27;20472;-81
2023/10/07 02:09:26;;;;;;;15.27;7.20;;;16.90;99.90;;;;;;5125726;27;20333;-80
2023/10/07 02:11:55;;;;;;;17.40;6.60;;;16.90;99.90;;;;;;5125662;27;20107;-81
2023/10/07 02:14:24;;;;;;;21.90;7.10;;;16.90;99.90;;;;;;5110582;27;20042;-80
2023/10/07 02:16:56;;;;;;;21.33;6.55;;;16.90;99.90;;;;;;5110625;27;20353;-80
2023/10/07 02:19:29;;;;;;;16.65;6.63;;;16.90;99.90;;;;;;5108996;27;20135;-80
2023/10/07 02:21:59;;;;;;;18.55;6.68;;;16.90;99.90;;;;;;5127326;27;20355;-81
2023/10/07 02:24:29;;;;;;;19.00;7.10;;;16.90;99.90;;;;;;5107762;27;20050;-80
2023/10/07 02:27:04;;;;;;;16.40;6.25;;;16.90;99.90;;;;;;5124838;27;20119;-80
2023/10/07 02:29:30;;;;;;;18.70;6.75;;;16.90;99.90;;;;;;5126278;27;20126;-80
2023/10/07 02:32:11;;;;;;;16.88;6.47;;;17.00;99.90;;;;;;5126817;27;20580;-80
2023/10/07 02:34:51;;;;;;;17.75;6.55;;;16.90;99.90;;;;;;5122572;27;20130;-81
2023/10/07 02:37:25;;;;;;;16.40;6.15;;;17.00;99.90;;;;;;5109826;27;20046;-80
2023/10/07 02:39:56;;;;;;;14.40;5.82;;;17.00;99.90;;;;;;5126610;27;20167;-80
2023/10/07 02:42:28;;;;;;;23.45;6.47;;;17.00;99.90;;;;;;5108237;27;20129;-80
2023/10/07 02:47:40;;;;;;;15.38;5.82;;;17.00;99.90;;;;;;5120336;27;20066;-80
2023/10/07 02:50:08;;;;;;;15.55;6.85;;;17.00;99.90;;;;;;5121844;27;20075;-80
2023/10/07 02:52:38;;;;;;;17.75;6.43;;;17.00;99.90;;;;;;5121904;27;20054;-80
2023/10/07 02:57:47;;;;;;;17.85;5.68;;;17.00;99.90;;;;;;5124430;27;20532;-80
2023/10/07 03:00:29;;;;;;;15.90;6.40;;;17.00;99.90;;;;;;5109372;27;20047;-80
2023/10/07 03:03:48;;;;;;;13.65;5.75;;;17.00;99.90;;;;;;5108910;27;20046;-80
2023/10/07 03:05:45;;;;;;;12.18;5.40;;;17.00;99.90;;;;;;5116826;27;20082;-80
2023/10/07 03:08:21;;;;;;;18.30;6.05;;;17.00;99.90;;;;;;5127433;27;20067;-80
2023/10/07 03:13:37;;;;;;;15.90;6.22;;;17.00;99.90;;;;;;5129387;27;20054;-80
2023/10/07 03:24:13;;;;;;;16.38;6.13;;;17.10;99.90;;;;;;5130071;27;20626;-80
2023/10/07 03:26:46;;;;;;;18.33;6.13;;;17.10;99.90;;;;;;5112098;27;20106;-80
2023/10/07 03:29:30;;;;;;;16.65;5.95;;;17.10;99.90;;;;;;5112322;27;20038;-80
2023/10/07 03:31:59;;;;;;;13.55;5.53;;;17.10;99.90;;;;;;5111032;27;20512;-80
2023/10/07 03:34:25;;;;;;;15.52;5.38;;;17.10;99.90;;;;;;5126283;27;20497;-80
2023/10/07 03:37:14;;;;;;;18.75;6.20;;;17.10;99.90;;;;;;5129131;27;20076;-80
2023/10/07 03:39:56;;;;;;;17.48;5.70;;;17.10;99.90;;;;;;5107862;27;20050;-80
2023/10/07 03:42:23;;;;;;;14.90;5.68;;;17.10;99.90;;;;;;5128279;27;20443;-80
2023/10/07 03:44:49;;;;;;;13.35;5.10;;;17.10;99.90;;;;;;5107637;27;20553;-80
2023/10/07 03:47:15;;;;;;;14.52;5.20;;;17.10;99.90;;;;;;5111942;27;20054;-80
2023/10/07 03:49:42;;;;;;;16.17;5.43;;;17.10;99.90;;;;;;5126919;27;20055;-80
2023/10/07 03:52:14;;;;;;;16.02;5.85;;;17.10;99.90;;;;;;5127691;27;20115;-80
2023/10/07 03:54:40;;;;;;;13.48;5.68;;;17.10;99.90;;;;;;5109680;27;20493;-80
2023/10/07 03:57:07;;;;;;;16.10;5.50;;;17.10;99.90;;;;;;5111090;27;20079;-79
2023/10/07 03:59:39;;;;;;;15.48;5.78;;;17.10;99.90;;;;;;5110973;27;20124;-80
2023/10/07 04:05:00;;;;;;;18.98;5.93;;;17.10;99.90;;;;;;5125647;27;20130;-80
2023/10/07 04:07:27;;;;;;;16.77;5.57;;;17.10;99.90;;;;;;5128056;27;20393;-80
2023/10/07 04:09:54;;;;;;;17.23;5.78;;;17.10;99.90;;;;;;5129542;27;20107;-80
2023/10/07 04:12:22;;;;;;;17.15;5.95;;;17.10;99.90;;;;;;5130666;27;20123;-80
2023/10/07 04:14:52;;;;;;;15.93;6.40;;;17.10;99.90;;;;;;5110746;27;20027;-80
2023/10/07 04:17:18;;;;;;;16.17;6.20;;;17.20;99.90;;;;;;5109341;27;20084;-80
2023/10/07 04:19:53;;;;;;;17.02;6.65;;;17.10;99.90;;;;;;5127619;27;20050;-80
2023/10/07 04:22:24;;;;;;;14.55;5.95;;;17.10;99.90;;;;;;5126974;27;20042;-80
2023/10/07 04:24:50;;;;;;;14.77;6.18;;;17.10;99.90;;;;;;5111067;27;20485;-80
2023/10/07 04:27:20;;;;;;;13.60;5.43;;;17.10;99.90;;;;;;5112434;27;20047;-80
2023/10/07 04:29:51;;;;;;;16.40;5.90;;;17.20;99.90;;;;;;5108642;27;20046;-80
2023/10/07 04:32:21;;;;;;;14.88;5.72;;;17.10;99.90;;;;;;5126711;27;20466;-76
2023/10/07 04:37:47;;;;;;;13.55;5.57;;;17.10;99.90;;;;;;5128077;27;20408;-75
2023/10/07 04:40:53;;;;;;;13.75;5.43;;;17.10;99.90;;;;;;5109860;27;20074;-75
2023/10/07 04:45:49;;;;;;;15.43;5.90;;;17.10;99.90;;;;;;5126176;27;20394;-76
2023/10/07 04:48:24;;;;;;;18.42;6.00;;;17.10;99.90;;;;;;5125572;27;20044;-75
2023/10/07 04:51:07;;;;;;;18.13;6.05;;;17.10;99.90;;;;;;5112498;27;20062;-76
2023/10/07 04:53:43;;;;;;;16.05;6.07;;;17.10;99.90;;;;;;5123606;27;20058;-76
2023/10/07 04:56:10;;;;;;;17.60;6.50;;;17.10;99.90;;;;;;5123602;27;20107;-75
2023/10/07 04:58:40;;;;;;;15.82;5.95;;;17.10;99.90;;;;;;5127883;27;20035;-75
2023/10/07 05:01:48;;;;;;;13.73;6.35;;;17.10;99.90;;;;;;5113237;27;20035;-75
2023/10/07 05:04:10;;;;;;;14.57;5.80;;;17.10;99.90;;;;;;5124066;27;20189;-76
2023/10/07 05:06:37;;;;;;;17.98;6.43;;;17.10;99.90;;;;;;5110374;27;20105;-76
2023/10/07 05:09:10;;;;;;;15.60;6.00;;;17.10;99.90;;;;;;5124618;27;20090;-75
2023/10/07 05:11:43;;;;;;;15.52;5.80;;;17.10;99.90;;;;;;5127325;27;20031;-80
2023/10/07 05:14:16;;;;;;;14.20;5.65;;;17.10;99.90;;;;;;5124206;27;20201;-79
2023/10/07 05:16:48;;;;;;;14.25;5.50;;;17.10;99.90;;;;;;5126816;27;20055;-80
2023/10/07 05:19:22;;;;;;;14.77;6.47;;;17.10;99.90;;;;;;5111213;27;20042;-80
2023/10/07 05:21:59;;;;;;;16.17;6.15;;;17.10;99.90;;;;;;5108915;27;20864;-80
2023/10/07 05:24:28;;;;;;;14.93;5.82;;;17.10;99.90;;;;;;5107725;27;20039;-80
2023/10/07 05:26:55;;;;;;;18.85;5.47;;;17.10;99.90;;;;;;5126085;27;20099;-80
2023/10/07 05:29:22;;;;;;;16.88;6.00;;;17.10;99.90;;;;;;5126203;27;20378;-80
2023/10/07 05:31:48;;;;;;;13.93;5.53;;;17.10;99.90;;;;;;5127690;27;20456;-79
2023/10/07 05:34:15;;;;;;;19.17;5.78;;;17.10;99.90;;;;;;5108764;27;20039;-80
2023/10/07 05:36:50;;;;;;;16.08;5.50;;;17.10;99.90;;;;;;5109418;27;20062;-80
2023/10/07 05:39:17;;;;;;;15.15;5.60;;;17.10;99.90;;;;;;5129427;27;20046;-80
2023/10/07 05:41:44;;;;;;;18.17;6.18;;;17.10;99.90;;;;;;5124221;27;20108;-80
2023/10/07 05:44:10;;;;;;;14.85;6.07;;;17.10;99.90;;;;;;5113768;27;20033;-80
2023/10/07 05:46:36;;;;;;;18.10;6.55;;;17.10;99.90;;;;;;5111489;27;20047;-79
2023/10/07 05:49:02;;;;;;;17.63;7.63;;;17.10;99.90;;;;;;5109236;27;20061;-80
2023/10/07 05:51:28;;;;;;;17.42;6.65;;;17.10;99.90;;;;;;5108995;27;20054;-79
2023/10/07 05:53:54;;;;;;;22.23;6.82;;;17.10;99.90;;;;;;5122051;27;20461;-80
2023/10/07 05:56:19;;;;;;;18.23;6.65;;;17.10;99.90;;;;;;5128536;27;20066;-80
2023/10/07 05:58:46;;;;;;;15.65;6.22;;;17.00;99.90;;;;;;5107929;27;20046;-80
2023/10/07 06:01:14;;;;;;;20.33;6.90;;;17.10;99.90;;;;;;5127642;27;20030;-80
2023/10/07 06:03:40;;;;;;;18.77;6.30;;;17.00;99.90;;;;;;5123562;27;20071;-79
2023/10/07 06:06:06;;;;;;;17.27;6.40;;;17.00;99.90;;;;;;5111878;27;20493;-80
2023/10/07 06:08:33;;;;;;;17.63;6.25;;;17.00;99.90;;;;;;5109951;27;20045;-80
2023/10/07 06:11:00;;;;;;;16.70;6.13;;;17.00;99.90;;;;;;5125544;27;20210;-80
2023/10/07 06:13:27;;;;;;;15.52;6.63;;;17.00;99.90;;;;;;5107675;27;20142;-80
2023/10/07 06:15:55;;;;;;;18.50;6.70;;;17.00;99.90;;;;;;5108327;27;20415;-80
2023/10/07 06:18:22;;;;;;;19.65;6.47;;;17.00;99.90;;;;;;5123029;27;20038;-80
2023/10/07 06:20:51;;;;;;;17.83;6.22;;;17.00;99.90;;;;;;5109310;27;20135;-80
2023/10/07 06:23:24;;;;;;;17.40;5.70;;;17.00;99.90;;;;;;5105546;27;20178;-80
2023/10/07 06:25:54;;;;;;;19.20;6.70;;;17.00;99.90;;;;;;5107853;27;20078;-80
2023/10/07 06:31:11;;;;;;;19.23;7.10;;;17.00;99.90;;;;;;5122983;27;20054;-80
2023/10/07 06:33:39;;;;;;;14.52;5.90;;;17.00;99.90;;;;;;5122791;27;20455;-80
2023/10/07 06:36:07;;;;;;;15.00;5.68;;;17.00;99.90;;;;;;5107208;27;20058;-79
2023/10/07 06:38:36;;;;;;;20.08;6.78;;;17.00;99.90;;;;;;5111502;27;20382;-80
2023/10/07 06:41:10;;;;;;;17.33;6.85;;;17.00;99.90;;;;;;5111467;27;20307;-80
2023/10/07 06:43:43;;;;;;;14.95;6.32;;;17.00;99.90;;;;;;5113534;27;20050;-79
2023/10/07 06:46:12;;;;;;;20.23;6.78;;;17.00;99.90;;;;;;5127273;27;20043;-80
2023/10/07 06:48:39;;;;;;;19.40;6.18;;;17.10;99.90;;;;;;5110372;27;20043;-80
2023/10/07 06:51:11;;;;;;;14.57;6.28;;;17.10;99.90;;;;;;5113960;27;20142;-80
2023/10/07 06:53:42;;;;;;;15.27;5.90;;;17.10;99.90;;;;;;5125990;27;20414;-81
2023/10/07 06:56:20;;;;;;;17.88;6.00;;;17.10;99.90;;;;;;5128832;27;20035;-80
2023/10/07 06:58:53;;;;;;;18.00;6.80;;;17.10;99.90;;;;;;5129808;27;20121;-80
2023/10/07 07:04:10;;;;;;;15.40;6.53;;;17.20;99.90;;;;;;5126800;27;20043;-75
2023/10/07 07:06:44;;;;;;;16.38;6.07;;;17.20;99.90;;;;;;5126841;27;20952;-76
2023/10/07 07:12:04;;;;;;;18.70;6.13;;;17.20;99.90;;;;;;5127302;27;20106;-75
2023/10/07 07:14:30;;;;;;;17.02;6.03;;;17.20;99.90;;;;;;5112270;27;20043;-76
2023/10/07 07:22:44;;;;;;;15.98;6.07;;;17.30;99.90;;;;;;5128032;27;20128;-75
2023/10/07 07:25:11;;;;;;;17.63;6.53;;;17.40;99.90;;;;;;5112685;27;20031;-76
2023/10/07 07:27:44;;;;;;;15.88;5.82;;;17.40;99.90;;;;;;5124953;27;20536;-76
2023/10/07 07:30:19;;;;;;;15.55;5.93;;;17.50;99.90;;;;;;5110771;27;20595;-76
2023/10/07 07:32:55;;;;;;;16.05;6.03;;;17.60;99.90;;;;;;5130465;27;20055;-76
2023/10/07 07:35:43;;;;;;;19.00;5.97;;;17.60;99.90;;;;;;5113604;27;20047;-75
2023/10/07 07:38:31;;;;;;;14.23;5.88;;;17.60;99.90;;;;;;5110775;27;20034;-76
2023/10/07 07:41:01;;;;;;;14.38;6.22;;;17.60;99.90;;;;;;5122062;27;20043;-76
2023/10/07 07:43:27;;;;;;;15.82;6.38;;;17.60;99.90;;;;;;5111806;27;20046;-76
2023/10/07 07:46:05;;;;;;;17.13;6.72;;;17.60;99.90;;;;;;5128142;27;20045;-76
2023/10/07 07:48:36;;;;;;;14.93;6.07;;;17.60;99.90;;;;;;5109765;27;20528;-76
2023/10/07 07:51:03;;;;;;;18.30;6.72;;;17.60;99.90;;;;;;5108871;27;20050;-76
2023/10/07 07:53:30;;;;;;;13.73;5.57;;;17.70;99.90;;;;;;5110233;27;20216;-76
2023/10/07 07:55:58;;;;;;;13.27;5.45;;;17.70;99.90;;;;;;5110891;27;20042;-75
2023/10/07 07:58:25;;;;;;;16.60;6.35;;;17.70;99.90;;;;;;5127582;27;20122;-76
2023/10/07 08:01:05;;;;;;;15.63;5.97;;;17.70;99.90;;;;;;5108491;27;20047;-75
2023/10/07 08:03:35;;;;;;;15.35;5.75;;;17.80;99.90;;;;;;5138732;27;20047;-76
2023/10/07 08:06:04;;;;;;;;;;;17.80;99.90;;;;;;5116596;27;20042;-76
2023/10/07 08:08:31;;;;;;;15.60;6.23;;;17.90;99.90;;;;;;5111787;27;20014;-75
2023/10/07 08:10:59;;;;;;;14.90;6.18;;;17.90;99.90;;;;;;5130269;27;20051;-76
2023/10/07 08:13:27;;;;;;;15.75;6.45;;;17.90;99.90;;;;;;5127578;27;20091;-76
2023/10/07 08:15:54;;;;;;;16.60;5.82;;;18.00;99.90;;;;;;5112688;27;20374;-76
2023/10/07 08:18:28;;;;;;;15.85;5.90;;;18.00;99.90;;;;;;5125945;27;20059;-75
2023/10/07 08:21:07;;;;;;;14.63;5.80;;;18.00;99.90;;;;;;5131563;27;20042;-76
2023/10/07 08:23:36;;;;;;;18.38;5.70;;;18.00;99.90;;;;;;5108391;27;20449;-75
2023/10/07 08:26:12;;;;;;;16.13;5.60;;;18.10;99.90;;;;;;5126417;27;20110;-76
2023/10/07 08:28:43;;;;;;;17.08;6.18;;;18.00;99.90;;;;;;5127173;27;20046;-76
2023/10/07 08:31:19;;;;;;;22.10;6.97;;;18.00;99.90;;;;;;5128220;27;20122;-76
2023/10/07 08:34:09;;;;;;;13.20;5.65;;;18.00;99.90;;;;;;5126109;27;20034;-76
2023/10/07 08:37:02;;;;;;;19.42;6.07;;;18.00;99.90;;;;;;5128344;27;20053;-76
2023/10/07 08:39:28;;;;;;;18.15;5.82;;;17.90;99.90;;;;;;5126675;27;20129;-76
2023/10/07 08:41:58;;;;;;;18.20;6.47;;;17.90;99.90;;;;;;5126725;27;20374;-76
2023/10/07 08:44:31;;;;;;;17.35;5.78;;;17.90;99.90;;;;;;5129922;27;20083;-76
2023/10/07 08:47:05;;;;;;;19.58;6.22;;;17.90;99.90;;;;;;5126330;27;20046;-76
2023/10/07 08:49:35;;;;;;;18.58;6.10;;;17.90;99.90;;;;;;5123471;27;20498;-76
2023/10/07 08:52:08;;;;;;;17.08;6.35;;;17.90;99.90;;;;;;5129191;27;20149;-76
2023/10/07 08:54:37;;;;;;;14.95;5.72;;;17.90;99.90;;;;;;5109754;27;20773;-76
2023/10/07 08:57:15;;;;;;;16.65;6.50;;;17.90;99.90;;;;;;5125959;27;20559;-76
2023/10/07 08:59:46;;;;;;;16.17;6.32;;;17.90;99.90;;;;;;5110890;27;20054;-76
2023/10/07 09:02:26;;;;;;;13.82;5.95;;;17.90;99.90;;;;;;5126952;27;20438;-76
2023/10/07 09:04:59;;;;;;;16.23;5.88;;;17.90;99.90;;;;;;5110953;27;20477;-79
2023/10/07 09:07:32;;;;;;;18.48;6.22;;;18.00;99.90;;;;;;5108950;27;20512;-81
2023/10/07 09:10:19;;;;;;;13.93;5.40;;;18.00;99.90;;;;;;5107554;27;20034;-78
2023/10/07 09:12:56;;;;;;;13.75;4.95;;;18.10;99.90;;;;;;5126748;27;20053;-80
2023/10/07 09:15:26;;;;;;;16.42;5.53;;;18.10;99.90;;;;;;5127811;27;21364;-79
2023/10/07 09:18:05;;;;;;;19.70;6.15;;;18.10;99.90;;;;;;5107409;27;20130;-79
2023/10/07 09:20:32;;;;;;;17.60;6.27;;;18.20;99.90;;;;;;5110275;27;20445;-79
2023/10/07 09:23:06;;;;;;;15.93;5.90;;;18.20;99.90;;;;;;5108607;27;21040;-80
2023/10/07 09:25:32;;;;;;;17.48;5.72;;;18.30;99.90;;;;;;5127694;27;20521;-80
2023/10/07 09:28:00;;;;;;;16.67;6.38;;;18.30;99.90;;;;;;5124226;27;20030;-79
2023/10/07 09:30:35;;;;;;;14.95;5.70;;;18.40;99.90;;;;;;5108530;27;20371;-80
2023/10/07 09:33:14;;;;;;;12.88;5.15;;;18.40;99.90;;;;;;5123211;27;20489;-80
2023/10/07 09:35:42;;;;;;;18.30;5.57;;;18.40;99.90;;;;;;5109783;27;20587;-80
2023/10/07 09:43:51;;;;;;;17.23;6.03;;;18.50;99.90;;;;;;5122204;27;20049;-79
2023/10/07 09:46:52;;;;;;;16.65;5.75;;;18.50;99.90;;;;;;5124519;27;20520;-80
2023/10/07 09:49:14;;;;;;;17.23;5.65;;;18.50;99.90;;;;;;5122781;27;20034;-80
2023/10/07 09:51:47;;;;;;;14.40;5.32;;;18.50;99.90;;;;;;5110671;27;20043;-80
2023/10/07 09:54:51;;;;;;;14.65;6.00;;;18.50;99.90;;;;;;5134454;27;20125;-80
2023/10/07 09:57:42;;;;;;;13.18;5.25;;;18.50;99.90;;;;;;5112245;27;20038;-79
2023/10/07 10:03:28;;;;;;;17.08;5.93;;;18.60;99.90;;;;;;5125474;27;20123;-79
2023/10/07 10:06:47;;;;;;;19.00;5.68;;;18.60;99.90;;;;;;5125493;27;20045;-80
2023/10/07 10:09:14;;;;;;;13.52;4.97;;;18.70;99.90;;;;;;5096978;27;20614;-80
2023/10/07 10:11:55;;;;;;;15.90;5.47;;;18.60;99.90;;;;;;5111021;27;20115;-75
2023/10/07 10:14:39;;;;;;;11.50;5.28;;;18.70;99.90;;;;;;5112087;27;20489;-76
2023/10/07 10:17:12;;;;;;;13.05;5.50;;;18.70;99.90;;;;;;5117890;27;20369;-76
2023/10/07 10:19:47;;;;;;;14.60;5.57;;;18.60;99.90;;;;;;5110258;27;20043;-76
2023/10/07 10:22:22;;;;;;;16.13;5.70;;;18.60;99.90;;;;;;5108022;27;20485;-76
2023/10/07 10:24:54;;;;;;;14.00;5.60;;;18.60;99.90;;;;;;5126971;27;20086;-80
2023/10/07 10:27:20;;;;;;;16.80;5.80;;;18.60;99.90;;;;;;5105962;27;20051;-80
2023/10/07 10:33:19;;;;;;;16.05;5.68;;;18.70;99.90;;;;;;5123990;27;20082;-76
2023/10/07 10:35:51;;;;;;;15.50;5.30;;;18.80;99.90;;;;;;5109188;27;20413;-76
2023/10/07 10:38:20;;;;;;;14.35;5.22;;;18.80;99.90;;;;;;5124431;27;20493;-75
2023/10/07 10:40:46;;;;;;;17.13;6.20;;;18.90;99.90;;;;;;5113773;27;20050;-75
2023/10/07 10:43:28;;;;;;;13.40;5.30;;;18.90;99.90;;;;;;5105020;27;20320;-76
2023/10/07 10:46:07;;;;;;;14.32;5.00;;;19.00;99.90;;;;;;5108223;27;20481;-75
2023/10/07 10:48:39;;;;;;;15.98;6.00;;;19.00;99.90;;;;;;5124030;27;20031;-76
2023/10/07 10:51:05;;;;;;;13.38;5.53;;;19.10;99.90;;;;;;5123770;27;20066;-75
2023/10/07 10:53:33;;;;;;;20.40;6.20;;;19.10;99.90;;;;;;5109369;27;20057;-79
2023/10/07 10:56:00;;;;;;;14.75;5.53;;;19.10;99.90;;;;;;5106326;27;20129;-79
2023/10/07 10:58:27;;;;;;;14.68;6.07;;;19.10;99.90;;;;;;5123684;27;20051;-79
2023/10/07 11:00:56;;;;;;;18.25;6.13;;;19.10;99.90;;;;;;5123988;27;20030;-79
2023/10/07 11:03:25;;;;;;;11.63;4.65;;;19.30;99.90;;;;;;5106824;27;20134;-79
2023/10/07 11:05:54;;;;;;;13.45;5.57;;;19.20;99.90;;;;;;5106127;27;20054;-79
2023/10/07 11:08:26;;;;;;;16.87;5.53;;;19.30;99.90;;;;;;5110935;27;20037;-79
2023/10/07 11:11:00;;;;;;;15.38;5.60;;;19.30;99.90;;;;;;5124731;27;20057;-79
2023/10/07 11:13:28;;;;;;;13.93;5.25;;;19.20;99.90;;;;;;5109399;27;20035;-79
2023/10/07 11:16:12;;;;;;;16.95;6.45;;;19.20;99.90;;;;;;5125845;27;20134;-79
2023/10/07 11:18:45;;;;;;;13.60;6.03;;;19.20;99.90;;;;;;5124512;27;20114;-78
2023/10/07 11:21:11;;;;;;;16.17;5.35;;;19.20;99.90;;;;;;5106894;27;20353;-78
2023/10/07 11:23:54;;;;;;;17.10;6.28;;;19.20;99.90;;;;;;5108661;27;20126;-79
2023/10/07 11:26:24;;;;;;;10.80;5.18;;;19.20;99.90;;;;;;5125672;27;20094;-78
2023/10/07 11:28:56;;;;;;;15.32;6.05;;;19.20;99.90;;;;;;5110565;27;20092;-79
2023/10/07 11:31:31;;;;;;;16.50;5.93;;;19.30;99.90;;;;;;5110544;27;20114;-79
2023/10/07 11:33:57;;;;;;;15.02;5.28;;;19.30;99.90;;;;;;5127344;27;20099;-79
2023/10/07 11:36:23;;;;;;;14.25;5.97;;;19.30;99.90;;;;;;5131716;27;20043;-78
2023/10/07 11:38:50;;;;;;;14.23;5.75;;;19.20;99.90;;;;;;5113465;27;20117;-79
2023/10/07 11:41:16;;;;;;;13.25;5.35;;;19.20;99.90;;;;;;5129310;27;20031;-78
2023/10/07 11:43:48;;;;;;;13.63;5.47;;;19.20;99.90;;;;;;5129735;27;20103;-79
2023/10/07 11:46:15;;;;;;;15.43;5.15;;;19.20;99.90;;;;;;5129138;27;20038;-78
2023/10/07 11:48:44;;;;;;;13.32;5.40;;;19.20;99.90;;;;;;5110351;27;20035;-78
2023/10/07 11:51:10;;;;;;;13.82;5.40;;;19.10;99.90;;;;;;5111144;27;20100;-79
2023/10/07 11:53:36;;;;;;;16.98;5.47;;;19.20;99.90;;;;;;5125681;27;20038;-78
2023/10/07 11:56:05;;;;;;;16.02;5.82;;;19.20;99.90;;;;;;5112739;27;20050;-78
2023/10/07 11:58:34;;;;;;;13.38;5.22;;;19.30;99.90;;;;;;5107792;27;20043;-78
2023/10/07 12:01:03;;;;;;;15.32;5.65;;;19.50;99.90;;;;;;5125908;27;20035;-78
2023/10/07 12:03:30;;;;;;;13.07;5.30;;;19.60;99.90;;;;;;5131166;27;20049;-79
2023/10/07 12:05:58;;;;;;;14.77;5.40;;;19.70;99.90;;;;;;5112944;27;20400;-79
2023/10/07 12:08:25;;;;;;;13.02;5.13;;;19.70;99.90;;;;;;5110327;27;20111;-78
2023/10/07 12:10:51;;;;;;;17.83;5.95;;;19.60;99.90;;;;;;5126737;27;20062;-78
2023/10/07 12:13:19;;;;;;;15.77;5.30;;;19.50;99.90;;;;;;5108506;27;20107;-78
2023/10/07 12:15:45;;;;;;;15.07;5.60;;;19.50;99.90;;;;;;5109989;27;20151;-77
2023/10/07 12:18:16;;;;;;;14.82;5.38;;;19.40;99.90;;;;;;5127190;27;20390;-77
2023/10/07 12:20:42;;;;;;;12.75;4.93;;;19.50;99.90;;;;;;5126039;27;20069;-75
2023/10/07 12:23:08;;;;;;;13.65;5.78;;;19.40;99.90;;;;;;5124458;27;20388;-76
2023/10/07 12:25:37;;;;;;;14.52;5.95;;;19.40;99.90;;;;;;5109874;27;20042;-75
2023/10/07 12:28:06;;;;;;;13.68;5.60;;;19.40;99.90;;;;;;5106835;27;20655;-75
2023/10/07 12:30:32;;;;;;;15.75;5.93;;;19.50;99.90;;;;;;5123825;27;20512;-75
2023/10/07 12:32:58;;;;;;;15.73;5.82;;;19.50;99.90;;;;;;5106575;27;20034;-74
2023/10/07 12:35:24;;;;;;;12.00;4.97;;;19.60;99.90;;;;;;5119483;27;20082;-75
2023/10/07 12:37:53;;;;;;;14.75;5.80;;;19.60;99.90;;;;;;5105938;27;20481;-76
2023/10/07 12:40:19;;;;;;;14.32;5.57;;;19.60;99.90;;;;;;5111032;27;20053;-76
2023/10/07 12:42:50;;;;;;;14.00;5.25;;;19.70;99.90;;;;;;5124950;27;20051;-74
2023/10/07 12:45:16;;;;;;;13.50;5.10;;;19.70;99.90;;;;;;5125212;27;20511;-75
2023/10/07 12:47:42;;;;;;;13.02;5.22;;;19.80;99.90;;;;;;5111152;27;20633;-75
2023/10/07 12:52:56;;;;;;;12.68;4.97;;;19.80;99.90;;;;;;5126238;27;20046;-76
2023/10/07 12:55:22;;;;;;;14.32;5.05;;;19.80;99.90;;;;;;5124908;27;20075;-75
2023/10/07 12:57:51;;;;;;;13.27;6.00;;;19.80;99.90;;;;;;5130661;27;20126;-75
2023/10/07 13:00:29;;;;;;;13.82;5.38;;;19.80;99.90;;;;;;5111060;27;20462;-74
2023/10/07 13:02:55;;;;;;;11.95;5.43;;;19.70;99.90;;;;;;5111447;27;20043;-75
2023/10/07 13:05:24;;;;;;;14.55;5.82;;;19.60;99.90;;;;;;5107195;27;20042;-75
2023/10/07 13:07:51;;;;;;;13.27;5.43;;;19.60;99.90;;;;;;5109022;27;20463;-75
2023/10/07 13:10:17;;;;;;;14.00;5.55;;;19.60;99.90;;;;;;5123298;27;20228;-74
2023/10/07 13:12:44;;;;;;;17.65;5.75;;;19.60;99.90;;;;;;5131271;27;20446;-75
2023/10/07 13:15:18;;;;;;;14.68;5.68;;;19.60;99.90;;;;;;5123276;27;20162;-74
2023/10/07 13:17:47;;;;;;;14.38;5.85;;;19.60;99.90;;;;;;5126826;27;20089;-75
2023/10/07 13:20:20;;;;;;;11.82;5.22;;;19.60;99.90;;;;;;5110027;27;20078;-74
2023/10/07 13:22:47;;;;;;;13.23;5.93;;;19.60;99.90;;;;;;5126746;27;20039;-75
2023/10/07 13:25:13;;;;;;;14.90;5.75;;;19.50;99.90;;;;;;5128280;27;20438;-73
2023/10/07 13:27:40;;;;;;;14.43;5.70;;;19.50;99.90;;;;;;5127004;27;20051;-74
2023/10/07 13:30:13;;;;;;;13.25;5.45;;;19.50;99.90;;;;;;5122966;27;20547;-75
2023/10/07 13:32:46;;;;;;;12.38;5.07;;;19.40;99.90;;;;;;5126434;27;20126;-74
2023/10/07 13:35:16;;;;;;;13.00;5.45;;;19.30;99.90;;;;;;5106330;27;20051;-75
2023/10/07 13:37:45;;;;;;;13.20;5.35;;;19.30;99.90;;;;;;5107137;27;20042;-76
2023/10/07 13:40:18;;;;;;;11.95;5.30;;;19.40;99.90;;;;;;5106694;27;20038;-76
2023/10/07 13:42:49;;;;;;;12.30;5.55;;;19.40;99.90;;;;;;5123511;27;20074;-76
2023/10/07 13:45:23;;;;;;;12.43;5.40;;;19.40;99.90;;;;;;5107207;27;20397;-75
2023/10/07 13:47:49;;;;;;;12.57;5.95;;;19.40;99.90;;;;;;5108884;27;20511;-76
2023/10/07 13:50:20;;;;;;;13.00;5.57;;;19.50;99.90;;;;;;5107358;27;20074;-76
2023/10/07 13:52:51;;;;;;;14.57;5.93;;;19.50;99.90;;;;;;5125002;27;20508;-74
2023/10/07 13:55:44;;;;;;;13.15;5.70;;;19.50;99.90;;;;;;5122558;27;20979;-76
2023/10/07 13:58:14;;;;;;;11.18;5.40;;;19.40;99.90;;;;;;5123967;27;20175;-75
2023/10/07 14:00:45;;;;;;;15.63;6.07;;;19.40;99.90;;;;;;5122244;27;20065;-76